首页
METAR-TAF:

METAR-TAF

机场 :

布里斯托機場

布里斯托尔, 英格兰

纬度: 51-23N, 经度: 002-43W, 海拔: 189米

当前天气观测

该预报发布于19分钟前的08:20 UTC
风速8节,风向北转东北
温度 19°C
湿度 88%
气压 1021 hPa
能见度10公里或以上
散云层高于1000英尺

METAR: EGGD 080820Z 02008KT 9999 SCT010 19/17 Q1021

时间: 09:39 (08:39 UTC)

预报

该预报发布于3小时和45分钟前的04:54 UTC
预报有效从08日的 06点(UTC)到 09日的 06点(UTC)
风速3节,风向多变
能見度: 0200
多云层低于100英尺
成为
从 08日的 06点(UTC)到 08日的 09点(UTC)
风速10节,风向北转东北
能见度10公里或以上
少量云层高于1000英尺
成为
从 09日的 01点(UTC)到 09日的 04点(UTC)
多云层高于800英尺
几率 40%
从 09日的 03点(UTC)到 09日的 06点(UTC)
能見度: 7000
多云层高于300英尺

TAF: EGGD 080454Z 0806/0906 VRB03KT 0200 FG BKN000 BECMG 0806/0809 03010KT 9999 NSW FEW010 BECMG 0901/0904 BKN008 PROB40 0903/0906 7000 BKN003

超过4000个机场的气象观测和天气预报(METAR&TAF报告)。

可查询的气象台以黄色和红色小点在地图上表示。

将鼠标移到小点上方,可查看气象台名称。

然后点击查看天气观测和预报。

如需切换地图:点击带黑十字的绿色按钮放大地图;点击带横线的绿色按钮缩小地图;或者点击绿色箭头查看邻近地区的地图。


METAR-TAF: